createdAt,value
2017-07-03T00:01:00.379Z,4.27
2017-07-03T00:03:27.806Z,3.97
2017-07-03T00:05:55.256Z,4.40
2017-07-03T00:08:22.673Z,4.10
2017-07-03T00:10:50.890Z,4.60
2017-07-03T00:13:18.313Z,4.20
2017-07-03T00:15:45.745Z,4.70
2017-07-03T00:18:13.187Z,4.70
2017-07-03T00:20:40.619Z,4.83
2017-07-03T00:23:08.133Z,5.30
2017-07-03T00:25:35.573Z,4.97
2017-07-03T00:28:03.008Z,4.50
2017-07-03T00:30:30.447Z,5.80
2017-07-03T00:32:57.885Z,5.40
2017-07-03T00:35:25.309Z,4.57
2017-07-03T00:37:52.752Z,5.00
2017-07-03T00:40:20.187Z,4.90
2017-07-03T00:42:47.627Z,4.77
2017-07-03T00:45:15.056Z,5.10
2017-07-03T00:47:42.479Z,5.70
2017-07-03T00:50:12.107Z,5.53
2017-07-03T00:52:39.609Z,5.80
2017-07-03T00:55:07.072Z,5.00
2017-07-03T00:57:34.509Z,6.17
2017-07-03T01:00:02.731Z,3.87
2017-07-03T01:02:30.220Z,3.03
2017-07-03T01:04:58.434Z,2.57
2017-07-03T01:07:25.900Z,2.67
2017-07-03T01:09:53.337Z,2.40
2017-07-03T01:12:20.776Z,2.73
2017-07-03T01:14:48.208Z,2.40
2017-07-03T01:17:15.664Z,2.10
2017-07-03T01:19:43.101Z,2.50
2017-07-03T01:22:10.544Z,2.30
2017-07-03T01:24:37.985Z,2.73
2017-07-03T01:27:05.428Z,2.10
2017-07-03T01:29:32.956Z,2.50
2017-07-03T01:32:00.397Z,2.50
2017-07-03T01:34:27.831Z,2.07
2017-07-03T01:36:55.264Z,2.33
2017-07-03T01:39:22.721Z,2.07
2017-07-03T01:41:50.157Z,2.70
2017-07-03T01:44:17.600Z,2.80
2017-07-03T01:46:45.049Z,2.50
2017-07-03T01:49:12.492Z,2.50
2017-07-03T01:51:39.944Z,2.57
2017-07-03T01:54:07.392Z,2.10
2017-07-03T01:56:34.823Z,2.80
2017-07-03T01:59:02.264Z,2.77
2017-07-03T02:01:29.705Z,2.90
2017-07-03T02:03:57.145Z,4.50
2017-07-03T02:06:24.601Z,2.40
2017-07-03T02:08:52.036Z,2.80
2017-07-03T02:11:19.488Z,3.10
2017-07-03T02:13:46.929Z,2.57
2017-07-03T02:16:14.374Z,2.53
2017-07-03T02:18:41.805Z,2.80
2017-07-03T02:21:09.240Z,2.70
2017-07-03T02:23:36.677Z,3.20
2017-07-03T02:26:04.116Z,3.00
2017-07-03T02:28:31.583Z,3.03
2017-07-03T02:30:59.020Z,3.60
2017-07-03T02:33:26.467Z,3.37
2017-07-03T02:35:53.902Z,3.23
2017-07-03T02:38:21.344Z,3.80
2017-07-03T02:40:48.779Z,3.53
2017-07-03T02:43:16.207Z,3.97
2017-07-03T02:45:44.360Z,3.60
2017-07-03T02:48:11.791Z,4.30
2017-07-03T02:50:39.245Z,4.70
2017-07-03T02:53:06.682Z,4.70
2017-07-03T02:55:34.198Z,4.27
2017-07-03T02:58:01.625Z,5.13
2017-07-03T03:00:29.051Z,4.47
2017-07-03T03:02:56.496Z,4.70
2017-07-03T03:05:23.928Z,4.90
2017-07-03T03:07:51.371Z,4.50
2017-07-03T03:10:18.814Z,5.50
2017-07-03T03:12:46.248Z,4.63
2017-07-03T03:15:13.684Z,4.97
2017-07-03T03:17:41.125Z,3.77
2017-07-03T03:20:08.564Z,4.30
2017-07-03T03:22:35.996Z,4.50
2017-07-03T03:25:03.451Z,4.60
2017-07-03T03:27:30.886Z,4.80
2017-07-03T03:29:58.329Z,4.17
2017-07-03T03:32:25.763Z,4.40
2017-07-03T03:34:53.216Z,4.60
2017-07-03T03:37:20.646Z,4.40
2017-07-03T03:39:48.088Z,5.63
2017-07-03T03:42:15.520Z,4.63
2017-07-03T03:44:43.732Z,5.27
2017-07-03T03:47:11.175Z,4.40
2017-07-03T03:49:38.609Z,5.43
2017-07-03T03:52:06.088Z,5.30
2017-07-03T03:54:33.521Z,4.70
2017-07-03T03:57:00.965Z,4.73
2017-07-03T03:59:28.405Z,4.50
2017-07-03T04:01:55.858Z,5.30
2017-07-03T04:04:23.279Z,5.80
2017-07-03T04:06:50.729Z,5.00
2017-07-03T04:09:18.160Z,5.40
2017-07-03T04:11:45.605Z,5.20
2017-07-03T04:14:13.047Z,5.13
2017-07-03T04:16:40.501Z,5.07
2017-07-03T04:19:07.928Z,5.07
2017-07-03T04:21:35.368Z,5.37
2017-07-03T04:24:02.835Z,5.37
2017-07-03T04:26:30.376Z,5.43
2017-07-03T04:28:58.248Z,5.70
2017-07-03T04:31:25.672Z,5.13
2017-07-03T04:33:53.121Z,5.47
2017-07-03T04:36:21.323Z,4.90
2017-07-03T04:38:48.769Z,4.60
2017-07-03T04:41:16.201Z,5.10
2017-07-03T04:43:43.652Z,5.00
2017-07-03T04:46:11.092Z,5.40
2017-07-03T04:48:38.525Z,5.17
2017-07-03T04:51:05.960Z,4.93
2017-07-03T04:53:33.396Z,4.60
2017-07-03T04:56:01.609Z,4.87
2017-07-03T04:58:29.034Z,4.80
2017-07-03T05:00:56.526Z,5.90
2017-07-03T05:03:23.959Z,5.13
2017-07-03T05:05:51.392Z,5.90
2017-07-03T05:08:18.829Z,6.20
2017-07-03T05:10:46.281Z,5.50
2017-07-03T05:13:13.736Z,5.20
2017-07-03T05:15:41.187Z,6.10
2017-07-03T05:18:09.414Z,5.70
2017-07-03T05:20:36.848Z,6.27
2017-07-03T05:23:04.288Z,4.60
2017-07-03T05:25:31.824Z,4.37
2017-07-03T05:27:59.256Z,5.30
2017-07-03T05:30:26.688Z,4.83
2017-07-03T05:32:54.127Z,5.53
2017-07-03T05:35:21.576Z,4.97
2017-07-03T05:37:49.036Z,4.87
2017-07-03T05:40:16.469Z,5.73
2017-07-03T05:42:49.532Z,5.20
2017-07-03T05:45:16.961Z,5.50
2017-07-03T05:47:44.378Z,5.13
2017-07-03T05:50:11.825Z,5.83
2017-07-03T05:52:39.260Z,5.33
2017-07-03T05:55:06.700Z,5.40
2017-07-03T05:57:34.136Z,5.77
2017-07-03T06:00:01.625Z,5.10
2017-07-03T06:02:29.064Z,5.43
2017-07-03T06:04:57.284Z,4.97
2017-07-03T06:07:24.767Z,5.23
2017-07-03T06:09:52.955Z,5.00
2017-07-03T06:12:20.391Z,4.60
2017-07-03T06:14:47.829Z,5.57
2017-07-03T06:17:15.256Z,5.23
2017-07-03T06:19:43.170Z,5.80
2017-07-03T06:22:10.615Z,4.97
2017-07-03T06:24:38.039Z,5.60
2017-07-03T06:27:05.501Z,5.70
2017-07-03T06:29:32.924Z,5.50
2017-07-03T06:32:00.360Z,5.50
2017-07-03T06:34:27.793Z,5.40
2017-07-03T06:36:55.221Z,10.17
2017-07-03T06:39:22.685Z,5.70
2017-07-03T06:41:50.109Z,5.30
2017-07-03T06:44:17.545Z,5.30
2017-07-03T06:46:45.030Z,5.13
2017-07-03T06:49:12.473Z,5.20
2017-07-03T06:51:39.900Z,5.00
2017-07-03T06:54:07.335Z,5.23
2017-07-03T06:56:34.783Z,4.50
2017-07-03T06:59:02.210Z,5.37
2017-07-03T07:01:30.016Z,4.67
2017-07-03T07:03:57.449Z,4.70
2017-07-03T07:06:24.887Z,5.53
2017-07-03T07:08:52.328Z,5.47
2017-07-03T07:11:19.787Z,5.00
2017-07-03T07:13:47.216Z,5.23
2017-07-03T07:16:14.667Z,5.07
2017-07-03T07:18:42.106Z,5.10
2017-07-03T07:21:09.531Z,6.40
2017-07-03T07:23:36.970Z,11.70
2017-07-03T07:26:04.476Z,5.00
2017-07-03T07:28:32.822Z,5.77
2017-07-03T07:31:01.019Z,9.87
2017-07-03T07:33:28.473Z,4.83
2017-07-03T07:35:55.904Z,4.53
2017-07-03T07:38:23.355Z,5.23
2017-07-03T07:40:50.784Z,4.60
2017-07-03T07:43:18.212Z,5.40
2017-07-03T07:45:45.654Z,5.57
2017-07-03T07:48:13.079Z,4.03
2017-07-03T07:50:41.287Z,4.00
2017-07-03T07:53:08.722Z,3.97
2017-07-03T07:55:36.155Z,4.50
2017-07-03T07:58:03.583Z,4.27
2017-07-03T08:00:31.055Z,4.33
2017-07-03T08:02:58.497Z,3.50
2017-07-03T08:05:25.937Z,3.83
2017-07-03T08:07:53.372Z,4.30
2017-07-03T08:10:20.813Z,4.67
2017-07-03T08:12:48.245Z,3.80
2017-07-03T08:15:15.712Z,3.90
2017-07-03T08:17:43.145Z,3.37
2017-07-03T08:20:10.597Z,3.63
2017-07-03T08:22:38.027Z,7.70
2017-07-03T08:25:05.464Z,4.63
2017-07-03T08:27:32.904Z,3.50
2017-07-03T08:30:00.331Z,3.07
2017-07-03T08:32:27.767Z,3.40
2017-07-03T08:34:55.200Z,4.20
2017-07-03T08:37:23.404Z,2.70
2017-07-03T08:39:50.880Z,2.70
2017-07-03T08:42:18.320Z,5.40
2017-07-03T08:44:45.752Z,3.40
2017-07-03T08:47:13.204Z,2.67
2017-07-03T08:49:40.619Z,2.80
2017-07-03T08:52:08.058Z,3.30
2017-07-03T08:54:35.504Z,2.53
2017-07-03T08:57:02.936Z,2.90
2017-07-03T08:59:30.376Z,3.10
2017-07-03T09:01:57.808Z,3.37
2017-07-03T09:04:25.259Z,2.60
2017-07-03T09:06:52.701Z,3.03
2017-07-03T09:09:20.148Z,2.57
2017-07-03T09:11:47.581Z,3.10
2017-07-03T09:14:15.042Z,2.67
2017-07-03T09:16:42.472Z,2.80
2017-07-03T09:19:09.897Z,2.87
2017-07-03T09:21:37.336Z,2.50
2017-07-03T09:24:04.768Z,2.13
2017-07-03T09:26:32.964Z,2.70
2017-07-03T09:29:00.399Z,2.50
2017-07-03T09:31:27.847Z,2.27
2017-07-03T09:33:55.290Z,22.83
2017-07-03T09:36:22.748Z,8.43
2017-07-03T09:38:50.182Z,3.67
2017-07-03T09:41:17.624Z,2.40
2017-07-03T09:43:45.073Z,2.33
2017-07-03T09:46:12.504Z,2.97
2017-07-03T09:48:39.931Z,2.97
2017-07-03T09:51:07.403Z,2.90
2017-07-03T09:53:34.820Z,3.03
2017-07-03T09:56:02.252Z,2.70
2017-07-03T09:58:29.746Z,2.40
2017-07-03T10:00:57.257Z,3.43
2017-07-03T10:03:24.708Z,2.40
2017-07-03T10:05:52.139Z,3.07
2017-07-03T10:08:19.577Z,2.53
2017-07-03T10:10:47.012Z,3.33
2017-07-03T10:13:14.528Z,2.33
2017-07-03T10:15:42.063Z,2.80
2017-07-03T10:18:09.552Z,2.63
2017-07-03T10:20:36.992Z,2.03
2017-07-03T10:23:04.440Z,2.27
2017-07-03T10:25:32.673Z,1.90
2017-07-03T10:28:00.891Z,1.60
2017-07-03T10:30:28.323Z,2.30
2017-07-03T10:32:55.757Z,2.70
2017-07-03T10:35:23.201Z,2.57
2017-07-03T10:37:50.627Z,2.60
2017-07-03T10:40:18.087Z,2.23
2017-07-03T10:42:45.513Z,2.67
2017-07-03T10:45:13.844Z,2.57
2017-07-03T10:47:42.364Z,2.10
2017-07-03T10:50:09.836Z,2.27
2017-07-03T10:52:38.051Z,2.60
2017-07-03T10:55:05.543Z,3.80
2017-07-03T10:57:32.967Z,3.43
2017-07-03T11:00:00.425Z,2.03
2017-07-03T11:02:28.896Z,2.17
2017-07-03T11:04:56.341Z,2.37
2017-07-03T11:07:23.764Z,2.00
2017-07-03T11:09:51.192Z,2.23
2017-07-03T11:12:18.640Z,1.80
2017-07-03T11:14:46.101Z,2.40
2017-07-03T11:17:13.543Z,2.40
2017-07-03T11:19:40.968Z,2.40
2017-07-03T11:22:08.400Z,2.17
2017-07-03T11:24:35.881Z,3.13
2017-07-03T11:27:04.100Z,2.30
2017-07-03T11:29:31.538Z,2.73
2017-07-03T11:31:58.993Z,2.67
2017-07-03T11:34:26.421Z,2.77
2017-07-03T11:36:53.851Z,2.60
2017-07-03T11:39:21.292Z,2.40
2017-07-03T11:41:48.724Z,2.60
2017-07-03T11:44:16.163Z,2.77
2017-07-03T11:46:44.363Z,2.90
2017-07-03T11:49:11.805Z,2.23
2017-07-03T11:51:39.237Z,2.53
2017-07-03T11:54:06.799Z,2.20
2017-07-03T11:56:34.225Z,2.00
2017-07-03T11:59:01.785Z,2.27
2017-07-03T12:01:29.203Z,2.30
2017-07-03T12:03:56.631Z,2.70
2017-07-03T12:06:24.073Z,2.30
2017-07-03T12:08:51.501Z,2.10
2017-07-03T12:11:19.733Z,2.03
2017-07-03T12:13:47.160Z,2.40
2017-07-03T12:16:14.603Z,2.70
2017-07-03T12:18:42.026Z,2.23
2017-07-03T12:21:09.500Z,1.90
2017-07-03T12:23:36.929Z,1.70
2017-07-03T12:26:04.777Z,2.57
2017-07-03T12:28:32.197Z,2.87
2017-07-03T12:30:59.639Z,2.00
2017-07-03T12:33:27.085Z,2.00
2017-07-03T12:35:54.546Z,2.00
2017-07-03T12:38:21.973Z,2.27
2017-07-03T12:40:49.404Z,2.10
2017-07-03T12:43:16.866Z,1.80
2017-07-03T12:45:44.295Z,2.00
2017-07-03T12:48:11.781Z,2.17
2017-07-03T12:50:39.227Z,1.90
2017-07-03T12:53:06.664Z,2.33
2017-07-03T12:55:34.338Z,2.00
2017-07-03T12:58:01.768Z,1.63
2017-07-03T13:00:29.207Z,2.40
2017-07-03T13:02:56.709Z,1.97
2017-07-03T13:05:24.165Z,2.70
2017-07-03T13:07:51.609Z,2.27
2017-07-03T13:10:19.044Z,1.83
2017-07-03T13:12:46.504Z,1.60
2017-07-03T13:15:14.792Z,1.73
2017-07-03T13:17:42.219Z,1.57
2017-07-03T13:20:09.656Z,1.90
2017-07-03T13:22:37.121Z,2.03
2017-07-03T13:25:05.390Z,1.80
2017-07-03T13:27:33.588Z,1.50
2017-07-03T13:30:01.036Z,1.73
2017-07-03T13:32:28.489Z,1.47
2017-07-03T13:34:55.936Z,1.57
2017-07-03T13:37:23.363Z,1.70
2017-07-03T13:39:50.809Z,1.47
2017-07-03T13:42:18.269Z,1.80
2017-07-03T13:44:45.698Z,1.63
2017-07-03T13:47:13.133Z,1.60
2017-07-03T13:49:40.646Z,2.60
2017-07-03T13:52:08.864Z,2.20
2017-07-03T13:54:36.302Z,1.73
2017-07-03T13:57:03.760Z,1.60
2017-07-03T13:59:31.189Z,1.33
2017-07-03T14:01:58.627Z,5.10
2017-07-03T14:04:26.685Z,1.73
2017-07-03T14:06:54.128Z,1.83
2017-07-03T14:09:21.573Z,3.40
2017-07-03T14:11:49.016Z,2.20
2017-07-03T14:14:16.448Z,1.67
2017-07-03T14:16:43.911Z,2.23
2017-07-03T14:19:11.347Z,2.00
2017-07-03T14:21:38.781Z,2.13
2017-07-03T14:24:06.222Z,1.70
2017-07-03T14:26:33.662Z,1.60
2017-07-03T14:29:01.115Z,2.03
2017-07-03T14:31:28.543Z,1.30
2017-07-03T14:33:55.980Z,1.97
2017-07-03T14:36:23.415Z,1.57
2017-07-03T14:38:50.852Z,2.13
2017-07-03T14:41:18.275Z,1.70
2017-07-03T14:43:45.708Z,1.60
2017-07-03T14:46:13.907Z,1.70
2017-07-03T14:48:41.338Z,1.30
2017-07-03T14:51:09.750Z,1.70
2017-07-03T14:53:37.170Z,1.50
2017-07-03T14:56:04.604Z,1.57
2017-07-03T14:58:32.046Z,1.50
2017-07-03T15:00:59.492Z,1.43
2017-07-03T15:03:26.912Z,1.60
2017-07-03T15:05:54.359Z,1.50
2017-07-03T15:08:21.804Z,1.60
2017-07-03T15:10:49.224Z,1.40
2017-07-03T15:13:16.675Z,1.60
2017-07-03T15:15:44.095Z,1.50
2017-07-03T15:18:12.304Z,5.43
2017-07-03T15:20:39.741Z,2.43
2017-07-03T15:23:07.224Z,2.77
2017-07-03T15:25:34.659Z,4.63
2017-07-03T15:28:02.100Z,1.67
2017-07-03T15:30:29.537Z,1.60
2017-07-03T15:32:57.128Z,1.60
2017-07-03T15:35:24.568Z,1.67
2017-07-03T15:37:52.039Z,1.50
2017-07-03T15:40:19.506Z,1.60
2017-07-03T15:42:46.979Z,1.53
2017-07-03T15:45:15.184Z,1.63
2017-07-03T15:47:42.642Z,1.40
2017-07-03T15:50:10.098Z,1.50
2017-07-03T15:52:37.548Z,2.07
2017-07-03T15:55:04.980Z,2.53
2017-07-03T15:57:32.460Z,1.60
2017-07-03T16:00:00.673Z,1.60
2017-07-03T16:02:28.110Z,1.50
2017-07-03T16:04:55.550Z,1.60
2017-07-03T16:07:22.986Z,1.40
2017-07-03T16:09:50.417Z,1.60
2017-07-03T16:12:17.869Z,1.60
2017-07-03T16:14:45.370Z,1.27
2017-07-03T16:17:13.573Z,1.50
2017-07-03T16:19:41.136Z,1.50
2017-07-03T16:22:08.590Z,1.37
2017-07-03T16:24:36.033Z,1.70
2017-07-03T16:27:03.461Z,1.70
2017-07-03T16:29:30.916Z,1.37
2017-07-03T16:31:58.382Z,1.47
2017-07-03T16:34:25.768Z,1.53
2017-07-03T16:36:53.211Z,1.60
2017-07-03T16:39:20.645Z,1.80
2017-07-03T16:41:48.088Z,1.40
2017-07-03T16:44:15.575Z,1.50
2017-07-03T16:46:43.008Z,1.47
2017-07-03T16:49:10.474Z,1.33
2017-07-03T16:51:37.927Z,1.80
2017-07-03T16:54:05.343Z,1.63
2017-07-03T16:56:32.787Z,1.70
2017-07-03T16:59:00.203Z,1.37
2017-07-03T17:01:27.652Z,1.33
2017-07-03T17:03:55.076Z,1.33
2017-07-03T17:06:22.555Z,1.67
2017-07-03T17:08:49.987Z,1.40
2017-07-03T17:11:17.428Z,1.70
2017-07-03T17:13:44.863Z,3.97
2017-07-03T17:16:12.302Z,1.10
2017-07-03T17:18:39.748Z,1.73
2017-07-03T17:21:07.195Z,1.87
2017-07-03T17:23:34.627Z,1.63
2017-07-03T17:26:02.056Z,1.70
2017-07-03T17:28:29.487Z,1.80
2017-07-03T17:30:56.924Z,1.60
2017-07-03T17:33:24.372Z,1.53
2017-07-03T17:35:51.787Z,1.30
2017-07-03T17:38:19.994Z,1.40
2017-07-03T17:40:47.415Z,1.73
2017-07-03T17:43:14.856Z,1.90
2017-07-03T17:45:42.286Z,1.70
2017-07-03T17:48:10.489Z,1.50
2017-07-03T17:50:37.916Z,1.50
2017-07-03T17:53:05.372Z,1.30
2017-07-03T17:55:32.805Z,1.90
2017-07-03T17:58:00.244Z,1.30
2017-07-03T18:00:27.667Z,1.17
2017-07-03T18:02:55.099Z,1.47
2017-07-03T18:05:23.307Z,1.67
2017-07-03T18:07:50.747Z,1.90
2017-07-03T18:10:18.188Z,1.70
2017-07-03T18:12:46.145Z,1.13
2017-07-03T18:15:13.591Z,1.63
2017-07-03T18:17:41.043Z,1.97
2017-07-03T18:20:08.456Z,1.40
2017-07-03T18:22:35.913Z,1.87
2017-07-03T18:25:03.340Z,2.07
2017-07-03T18:27:30.794Z,4.73
2017-07-03T18:29:58.227Z,5.50
2017-07-03T18:32:25.675Z,3.07
2017-07-03T18:34:53.113Z,2.10
2017-07-03T18:37:20.547Z,1.73
2017-07-03T18:39:47.983Z,1.60
2017-07-03T18:42:15.453Z,1.80
2017-07-03T18:44:42.888Z,2.00
2017-07-03T18:47:10.332Z,1.70
2017-07-03T18:49:37.763Z,1.67
2017-07-03T18:52:05.201Z,1.73
2017-07-03T18:54:32.669Z,1.77
2017-07-03T18:57:00.140Z,1.40
2017-07-03T18:59:27.577Z,1.80
2017-07-03T19:01:55.004Z,1.83
2017-07-03T19:04:22.441Z,1.70
2017-07-03T19:06:49.872Z,2.00
2017-07-03T19:09:17.331Z,1.63
2017-07-03T19:11:44.770Z,2.37
2017-07-03T19:14:12.208Z,1.50
2017-07-03T19:16:39.642Z,1.90
2017-07-03T19:19:07.131Z,2.13
2017-07-03T19:21:34.560Z,2.60
2017-07-03T19:24:01.997Z,1.83
2017-07-03T19:26:29.432Z,1.83
2017-07-03T19:28:56.881Z,2.07
2017-07-03T19:31:24.316Z,1.73
2017-07-03T19:33:51.756Z,2.27
2017-07-03T19:36:19.237Z,1.87
2017-07-03T19:38:46.759Z,2.10
2017-07-03T19:41:14.196Z,2.93
2017-07-03T19:43:41.640Z,3.50
2017-07-03T19:46:09.089Z,3.23
2017-07-03T19:48:36.524Z,3.23
2017-07-03T19:51:03.952Z,3.63
2017-07-03T19:53:31.376Z,3.27
2017-07-03T19:55:58.808Z,2.60
2017-07-03T19:58:26.266Z,2.40
2017-07-03T20:00:53.728Z,2.70
2017-07-03T20:03:21.173Z,3.10
2017-07-03T20:05:48.603Z,2.60
2017-07-03T20:08:16.045Z,2.83
2017-07-03T20:10:43.472Z,2.50
2017-07-03T20:13:10.926Z,4.97
2017-07-03T20:15:38.360Z,3.17
2017-07-03T20:18:05.821Z,2.20
2017-07-03T20:20:33.254Z,2.73
2017-07-03T20:23:00.688Z,1.83
2017-07-03T20:25:28.380Z,1.70
2017-07-03T20:27:55.806Z,2.40
2017-07-03T20:30:23.244Z,1.83
2017-07-03T20:32:50.699Z,1.93
2017-07-03T20:35:18.136Z,1.73
2017-07-03T20:37:45.579Z,6.07
2017-07-03T20:40:13.019Z,6.20
2017-07-03T20:42:40.450Z,5.03
2017-07-03T20:45:07.900Z,2.10
2017-07-03T20:47:35.338Z,2.57
2017-07-03T20:50:02.875Z,2.80
2017-07-03T20:52:30.354Z,2.20
2017-07-03T20:54:57.776Z,2.10
2017-07-03T20:57:25.216Z,2.33
2017-07-03T20:59:52.677Z,2.27
2017-07-03T21:02:20.113Z,10.87
2017-07-03T21:04:47.603Z,3.20
2017-07-03T21:07:15.033Z,4.07
2017-07-03T21:09:43.230Z,2.23
2017-07-03T21:12:11.479Z,2.40
2017-07-03T21:14:38.901Z,2.03
2017-07-03T21:17:06.352Z,1.60
2017-07-03T21:19:33.793Z,1.70
2017-07-03T21:22:01.289Z,1.80
2017-07-03T21:24:28.728Z,1.83
2017-07-03T21:26:56.152Z,2.73
2017-07-03T21:29:23.617Z,2.57
2017-07-03T21:31:51.093Z,2.50
2017-07-03T21:34:19.302Z,2.17
2017-07-03T21:36:46.764Z,2.23
2017-07-03T21:39:14.199Z,2.07
2017-07-03T21:41:41.664Z,1.90
2017-07-03T21:44:09.885Z,2.33
2017-07-03T21:46:37.316Z,2.20
2017-07-03T21:49:04.758Z,1.97
2017-07-03T21:51:32.185Z,2.10
2017-07-03T21:53:59.662Z,1.77
2017-07-03T21:56:27.105Z,1.70
2017-07-03T21:58:54.527Z,2.23
2017-07-03T22:01:21.964Z,1.97
2017-07-03T22:03:49.392Z,1.80
2017-07-03T22:06:16.837Z,1.80
2017-07-03T22:08:44.265Z,1.70
2017-07-03T22:11:12.455Z,2.40
2017-07-03T22:13:39.892Z,2.03
2017-07-03T22:16:07.330Z,1.83
2017-07-03T22:18:34.765Z,2.00
2017-07-03T22:21:02.240Z,1.70
2017-07-03T22:23:29.725Z,2.20
2017-07-03T22:25:57.925Z,2.37
2017-07-03T22:28:25.368Z,2.50
2017-07-03T22:30:52.888Z,2.43
2017-07-03T22:33:20.478Z,2.17
2017-07-03T22:35:47.920Z,1.97
2017-07-03T22:38:15.462Z,2.57
2017-07-03T22:40:42.900Z,2.50
2017-07-03T22:43:10.376Z,2.10
2017-07-03T22:45:37.827Z,2.00
2017-07-03T22:48:05.253Z,2.50
2017-07-03T22:50:32.692Z,2.13
2017-07-03T22:53:00.139Z,2.37
2017-07-03T22:55:27.568Z,1.97
2017-07-03T22:57:55.001Z,1.93
2017-07-03T23:00:22.445Z,1.60
2017-07-03T23:02:49.905Z,2.20
2017-07-03T23:05:17.332Z,2.23
2017-07-03T23:07:44.760Z,2.20
2017-07-03T23:10:12.195Z,2.23
2017-07-03T23:12:39.630Z,2.20
2017-07-03T23:15:07.061Z,1.93
2017-07-03T23:17:35.261Z,2.67
2017-07-03T23:20:02.706Z,10.90
2017-07-03T23:22:30.145Z,11.00
2017-07-03T23:24:57.581Z,3.00
2017-07-03T23:27:25.022Z,2.23
2017-07-03T23:29:52.452Z,1.70
2017-07-03T23:32:19.888Z,2.00
2017-07-03T23:34:47.318Z,2.40
2017-07-03T23:37:14.759Z,2.80
2017-07-03T23:39:43.054Z,2.20
2017-07-03T23:42:10.503Z,2.70
2017-07-03T23:44:37.955Z,2.70
2017-07-03T23:47:05.406Z,2.47
2017-07-03T23:49:32.837Z,2.80
2017-07-03T23:52:00.328Z,1.97
2017-07-03T23:54:28.581Z,2.37
2017-07-03T23:56:56.773Z,2.20
2017-07-03T23:59:24.208Z,2.57
